Wisner, Nebraska
Current Conditions -  °F | °C
As of 11:55 PM on Wednesday 17 Dec 2014 (Local Time) from KLCG Reporting Station
Overcast Overcast  
Wind Chill: 19°   Ceiling: 5500
Heat Index: 25°   Visibility: 10mi
Dew Point: 19°   Wind: 5mph
Humidity: 80%   Direction: 100°E
Pressure: 30.25"   Gusts: NA
Location:  41.99°N, 96.91°W
Report Text: KLCG 180555Z AUTO 10004KT 10SM OVC055 M04/M07 A3025 RMK AO2 T10401070 11040 21047 410321116
Loading
Personal Weather Stations






























Interactive Weather Map New forecast layout! Learn more

10-Day Weather Forecast

Advertisements
Track Severe Weather on mobile